Time;durP1;ratioP1;P1;durP2;ratioP2;P2;SDS_P1;SDS_P2;PMS_P1;PMS_P2;Temp;Humidity;BMP_temperature;BMP_pressure;BME280_temperature;BME280_humidity;BME280_pressure;Samples;Min_cycle;Max_cycle;Signal;HPM_P1;HPM_P2
2021/08/08 00:04:11;;;;;;;9.73;2.78;;;;;;;15.45;67.13;98948.41;10479823;28;20059;-63
2021/08/08 00:09:13;;;;;;;9.95;2.60;;;;;;;15.59;66.95;98960.34;10455800;28;20080;-63
2021/08/08 00:14:15;;;;;;;19.55;2.65;;;;;;;15.51;66.82;98961.03;10453667;28;20052;-63
2021/08/08 00:19:17;;;;;;;6.82;1.98;;;;;;;15.16;67.31;98960.91;10447637;28;20041;-63
2021/08/08 00:24:19;;;;;;;5.43;2.00;;;;;;;15.08;67.83;98964.22;10458797;28;20593;-62
2021/08/08 00:29:21;;;;;;;9.52;3.15;;;;;;;15.07;67.46;98964.38;10468333;28;20361;-63
2021/08/08 00:34:22;;;;;;;16.60;2.30;;;;;;;14.97;68.05;98963.56;10452755;28;20053;-63
2021/08/08 00:39:25;;;;;;;6.15;2.30;;;;;;;14.93;68.06;98968.31;10470328;28;20513;-63
2021/08/08 00:44:27;;;;;;;7.47;2.40;;;;;;;14.88;68.44;98977.63;10468002;28;20650;-61
2021/08/08 00:49:28;;;;;;;9.15;2.22;;;;;;;14.88;68.62;98986.31;10462795;28;20128;-61
2021/08/08 00:54:30;;;;;;;7.82;2.30;;;;;;;14.88;68.22;98988.16;10463210;28;20049;-61
2021/08/08 00:59:32;;;;;;;4.20;1.83;;;;;;;14.87;68.35;98989.09;10464853;28;20053;-62
2021/08/08 01:04:39;;;;;;;4.28;1.90;;;;;;;14.82;68.51;98984.25;10466742;28;20515;-61
2021/08/08 01:09:44;;;;;;;4.70;1.50;;;;;;;14.85;68.68;98994.50;10463940;28;20473;-61
2021/08/08 01:14:49;;;;;;;7.05;1.70;;;;;;;14.91;68.51;98995.75;10447107;28;20930;-61
2021/08/08 01:19:58;;;;;;;7.05;2.38;;;;;;;14.80;69.02;98993.28;10458520;28;20090;-61
2021/08/08 01:25:04;;;;;;;5.93;2.00;;;;;;;14.74;69.06;98992.03;10485840;28;20427;-61
2021/08/08 01:30:07;;;;;;;6.97;2.00;;;;;;;14.75;69.17;98993.69;10479907;28;20072;-61
2021/08/08 01:35:10;;;;;;;8.45;1.90;;;;;;;14.72;69.10;98990.50;10458682;28;20119;-61
2021/08/08 01:40:20;;;;;;;6.38;1.90;;;;;;;14.65;69.39;98989.41;10474802;28;20072;-61
2021/08/08 01:45:23;;;;;;;;;;;;;;;14.35;70.19;98980.66;10444793;28;20132;-61
2021/08/08 01:50:31;;;;;;;4.03;1.75;;;;;;;14.58;69.13;98974.19;10446722;28;19924;-61
2021/08/08 01:55:33;;;;;;;7.15;1.90;;;;;;;14.63;69.02;98968.50;10462578;28;20049;-61
2021/08/08 02:00:35;;;;;;;4.28;1.60;;;;;;;14.57;68.87;98964.59;10452733;28;20473;-61
2021/08/08 02:05:37;;;;;;;6.63;1.70;;;;;;;14.58;69.03;98970.72;10457605;28;20060;-61
2021/08/08 02:10:39;;;;;;;6.20;1.90;;;;;;;14.59;68.85;98969.75;10455502;28;20508;-62
2021/08/08 02:15:41;;;;;;;6.18;1.80;;;;;;;14.56;68.81;98970.84;10472612;28;20123;-62
2021/08/08 02:20:44;;;;;;;6.15;1.80;;;;;;;14.64;68.54;98969.31;10452723;28;20095;-62
2021/08/08 02:25:52;;;;;;;5.13;1.67;;;;;;;14.56;68.22;98970.84;10477533;28;20493;-61
2021/08/08 02:30:53;;;;;;;4.25;1.42;;;;;;;14.47;68.43;98984.81;10492611;28;20123;-61
2021/08/08 02:35:55;;;;;;;6.40;1.60;;;;;;;14.47;68.37;98984.81;10490365;28;20053;-61
2021/08/08 02:40:57;;;;;;;4.60;1.80;;;;;;;14.47;68.13;98995.31;10491610;28;20132;-61
2021/08/08 02:45:59;;;;;;;7.00;2.17;;;;;;;14.45;68.07;99002.53;10491032;28;20416;-61
2021/08/08 02:51:01;;;;;;;7.53;1.90;;;;;;;14.50;67.78;99020.56;10490424;28;20485;-61
2021/08/08 02:56:03;;;;;;;6.05;1.77;;;;;;;14.37;67.88;99030.50;10490602;28;20127;-62
2021/08/08 03:01:07;;;;;;;4.82;1.77;;;;;;;14.37;67.83;99044.47;10490457;28;20136;-61
2021/08/08 03:06:11;;;;;;;9.25;2.50;;;;;;;14.25;68.32;99047.34;10476558;28;20056;-62
2021/08/08 03:11:24;;;;;;;8.00;2.20;;;;;;;14.05;68.45;99054.38;10476887;28;20115;-62
2021/08/08 03:16:26;;;;;;;6.75;1.98;;;;;;;14.04;68.31;99060.63;10482734;28;20127;-62
2021/08/08 03:21:27;;;;;;;7.97;2.60;;;;;;;14.01;69.26;99070.56;10485365;28;20492;-61
2021/08/08 03:26:30;;;;;;;5.13;1.90;;;;;;;14.17;68.32;99084.03;10472647;28;20052;-61
2021/08/08 03:31:32;;;;;;;5.68;2.42;;;;;;;14.51;68.44;99094.09;10485055;28;20507;-62
2021/08/08 03:36:33;;;;;;;8.77;2.45;;;;;;;14.79;67.90;99104.78;10490241;28;20123;-61
2021/08/08 03:41:35;;;;;;;14.55;2.72;;;;;;;14.82;67.90;99110.59;10489631;28;20131;-62
2021/08/08 03:46:37;;;;;;;8.55;2.30;;;;;;;14.81;67.76;99113.38;10489496;28;20532;-62
2021/08/08 03:51:39;;;;;;;8.73;2.20;;;;;;;14.81;67.75;99116.84;10492890;28;20425;-62
2021/08/08 03:56:42;;;;;;;8.98;2.28;;;;;;;14.91;67.76;99119.47;10489613;28;20217;-62
2021/08/08 04:01:44;;;;;;;10.80;2.35;;;;;;;15.14;67.81;99134.03;10472288;28;20051;-62
2021/08/08 04:06:46;;;;;;;9.20;2.28;;;;;;;15.21;67.31;99137.75;10475924;28;20107;-62
2021/08/08 04:11:48;;;;;;;9.77;2.20;;;;;;;15.22;67.23;99139.44;10482498;28;20047;-62
2021/08/08 04:16:50;;;;;;;13.40;2.50;;;;;;;15.27;67.09;99153.00;10486410;28;20052;-62
2021/08/08 04:21:52;;;;;;;11.20;2.58;;;;;;;15.17;66.95;99144.28;10488439;28;20128;-62
2021/08/08 04:26:53;;;;;;;9.88;2.55;;;;;;;14.88;67.63;99154.81;10486217;28;20048;-62
2021/08/08 04:31:55;;;;;;;6.88;2.60;;;;;;;14.73;67.69;99177.25;10456488;28;20131;-62
2021/08/08 04:36:58;;;;;;;7.22;2.10;;;;;;;14.86;67.22;99179.63;10484681;28;20135;-62
2021/08/08 04:42:02;;;;;;;14.85;3.33;;;;;;;14.96;67.87;99180.47;10476057;28;20076;-62
2021/08/08 04:47:03;;;;;;;10.77;3.40;;;;;;;15.14;67.65;99192.78;10485070;28;20084;-62
2021/08/08 04:52:05;;;;;;;17.05;3.70;;;;;;;15.19;67.35;99187.94;10489463;28;20079;-62
2021/08/08 04:57:07;;;;;;;6.50;2.65;;;;;;;15.16;67.50;99188.22;10482927;28;20599;-62
2021/08/08 05:02:09;;;;;;;14.93;2.95;;;;;;;15.33;67.44;99192.81;10482607;28;20115;-63
2021/08/08 05:07:11;;;;;;;5.85;2.00;;;;;;;15.36;67.10;99189.06;10474043;28;20053;-62
2021/08/08 05:12:13;;;;;;;8.90;2.63;;;;;;;15.40;67.23;99195.72;10477503;28;20572;-63
2021/08/08 05:17:14;;;;;;;6.47;2.45;;;;;;;15.51;66.92;99202.69;10464322;28;20127;-63
2021/08/08 05:22:16;;;;;;;11.40;3.03;;;;;;;15.54;66.97;99187.41;10486000;28;20076;-62
2021/08/08 05:27:18;;;;;;;6.55;2.25;;;;;;;15.81;66.83;99191.94;10480076;28;20040;-63
2021/08/08 05:32:20;;;;;;;8.95;2.45;;;;;;;16.17;66.10;99197.25;10486436;28;20124;-63
2021/08/08 05:37:22;;;;;;;8.45;2.90;;;;;;;16.24;65.85;99206.22;10465296;28;20098;-63
2021/08/08 05:42:23;;;;;;;8.85;3.10;;;;;;;16.32;65.45;99204.69;10486069;28;20072;-62
2021/08/08 05:47:25;;;;;;;7.50;2.50;;;;;;;16.15;65.37;99215.03;10473908;28;20143;-62
2021/08/08 05:52:27;;;;;;;10.27;2.47;;;;;;;15.99;65.88;99214.81;10480949;28;20530;-62
2021/08/08 05:57:29;;;;;;;9.15;2.30;;;;;;;16.19;65.81;99226.13;10485059;28;20102;-62
2021/08/08 06:02:31;;;;;;;12.82;2.38;;;;;;;16.48;65.49;99226.03;10478650;28;20123;-62
2021/08/08 06:07:33;;;;;;;6.70;2.20;;;;;;;16.49;65.17;99233.00;10467558;28;20114;-62
2021/08/08 06:12:34;;;;;;;8.00;2.60;;;;;;;16.42;64.66;99231.88;10445141;28;20069;-62
2021/08/08 06:17:36;;;;;;;9.25;2.20;;;;;;;16.38;64.66;99241.88;10481194;28;20477;-62
2021/08/08 06:22:38;;;;;;;10.68;2.53;;;;;;;16.39;63.67;99246.19;10486256;28;20352;-62
2021/08/08 06:27:40;;;;;;;8.38;2.10;;;;;;;16.48;62.85;99253.28;10480727;28;20049;-63
2021/08/08 06:32:42;;;;;;;12.70;2.45;;;;;;;16.81;61.92;99252.66;10461266;28;20087;-63
2021/08/08 06:37:43;;;;;;;8.35;2.20;;;;;;;17.08;60.32;99257.09;10465418;28;20463;-63
2021/08/08 06:42:45;;;;;;;7.80;2.22;;;;;;;17.39;59.52;99261.09;10485861;28;20068;-63
2021/08/08 06:47:47;;;;;;;9.40;2.13;;;;;;;17.37;59.00;99275.44;10467363;28;20076;-63
2021/08/08 06:52:49;;;;;;;6.68;2.08;;;;;;;17.61;57.89;99278.31;10485415;28;20055;-62
2021/08/08 06:57:51;;;;;;;8.43;2.00;;;;;;;17.55;57.85;99292.13;10481978;28;20133;-63
2021/08/08 07:02:54;;;;;;;7.97;2.13;;;;;;;17.61;57.79;99304.75;10474527;28;20037;-63
2021/08/08 07:07:56;;;;;;;10.63;2.15;;;;;;;18.10;56.29;99301.53;10468701;28;20068;-63
2021/08/08 07:12:58;;;;;;;10.45;2.33;;;;;;;18.38;55.27;99286.38;10492687;28;20135;-62
2021/08/08 07:18:00;;;;;;;10.82;2.28;;;;;;;18.79;53.63;99296.19;10489466;28;20044;-63
2021/08/08 07:23:02;;;;;;;10.13;2.30;;;;;;;19.17;52.02;99300.19;10488826;28;20091;-63
2021/08/08 07:28:04;;;;;;;7.40;2.17;;;;;;;18.93;52.27;99292.91;10491895;28;20550;-62
2021/08/08 07:33:06;;;;;;;7.70;1.95;;;;;;;18.81;53.21;99298.69;10489011;28;20519;-63
2021/08/08 07:38:09;;;;;;;13.05;2.50;;;;;;;18.82;52.77;99310.94;10492673;28;20127;-63
2021/08/08 07:43:12;;;;;;;5.53;1.95;;;;;;;19.24;51.38;99307.31;10489810;28;20071;-63
2021/08/08 07:48:13;;;;;;;8.57;2.00;;;;;;;20.51;49.30;99314.69;10488277;28;20064;-62
2021/08/08 07:53:15;;;;;;;7.72;1.98;;;;;;;21.06;46.53;99315.53;10473950;28;20079;-62
2021/08/08 07:58:17;;;;;;;8.98;2.05;;;;;;;21.27;46.36;99309.63;10482054;28;20456;-63
2021/08/08 08:03:19;;;;;;;8.35;2.10;;;;;;;21.96;44.68;99315.81;10476986;28;20049;-63
2021/08/08 08:08:21;;;;;;;5.18;1.77;;;;;;;21.85;44.31;99327.72;10463391;28;20580;-62
2021/08/08 08:13:23;;;;;;;7.28;2.00;;;;;;;22.05;43.73;99330.78;10483281;28;20067;-63
2021/08/08 08:18:24;;;;;;;8.15;1.95;;;;;;;22.12;42.69;99335.19;10479619;28;20076;-63
2021/08/08 08:23:26;;;;;;;6.68;2.05;;;;;;;22.40;42.08;99330.94;10486224;28;20041;-62
2021/08/08 08:28:29;;;;;;;5.68;1.98;;;;;;;22.09;42.13;99337.38;10488178;28;20084;-63
2021/08/08 08:33:31;;;;;;;6.13;1.95;;;;;;;22.21;41.48;99325.31;10490247;28;20132;-63
2021/08/08 08:38:33;;;;;;;7.05;2.40;;;;;;;21.40;42.47;99333.00;10480010;28;20461;-63
2021/08/08 08:43:35;;;;;;;6.93;2.00;;;;;;;22.30;41.30;99327.69;10484201;28;20054;-63
2021/08/08 08:48:38;;;;;;;6.57;1.83;;;;;;;23.10;39.88;99333.19;10485809;28;20131;-63
2021/08/08 08:53:42;;;;;;;5.47;1.90;;;;;;;23.18;39.49;99335.75;10482303;28;20075;-63
2021/08/08 08:58:44;;;;;;;5.65;1.90;;;;;;;22.63;40.87;99345.03;10484427;28;20132;-63
2021/08/08 09:03:46;;;;;;;7.25;2.10;;;;;;;22.01;41.22;99348.88;10479280;28;20105;-62
2021/08/08 09:08:48;;;;;;;4.05;1.70;;;;;;;22.31;40.81;99349.84;10477370;28;20088;-63
2021/08/08 09:13:56;;;;;;;7.32;1.80;;;;;;;23.25;39.13;99360.66;10480366;28;20515;-62
2021/08/08 09:18:58;;;;;;;6.40;1.88;;;;;;;23.00;39.02;99353.97;10485983;28;20040;-63
2021/08/08 09:24:01;;;;;;;5.03;2.03;;;;;;;23.57;37.53;99365.63;10429842;28;20051;-63
2021/08/08 09:29:06;;;;;;;10.35;2.00;;;;;;;23.07;37.99;99373.56;10489397;28;20132;-63
2021/08/08 09:34:08;;;;;;;4.60;1.70;;;;;;;22.69;38.41;99380.78;10477994;28;20076;-63
2021/08/08 09:39:10;;;;;;;5.35;1.80;;;;;;;21.43;40.74;99397.34;10486922;28;20109;-63
2021/08/08 09:44:12;;;;;;;6.65;1.92;;;;;;;20.95;41.18;99403.63;10484540;28;20461;-63
2021/08/08 09:49:14;;;;;;;7.35;2.10;;;;;;;21.05;42.19;99403.41;10477686;28;20060;-63
2021/08/08 09:54:15;;;;;;;6.75;1.90;;;;;;;22.74;38.65;99402.41;10486995;28;20127;-64
2021/08/08 09:59:17;;;;;;;5.38;1.80;;;;;;;22.79;38.55;99415.19;10480932;28;20212;-63
2021/08/08 10:04:19;;;;;;;5.88;2.13;;;;;;;22.13;39.16;99423.91;10471488;28;20041;-63
2021/08/08 10:09:21;;;;;;;7.18;1.75;;;;;;;22.77;37.47;99406.56;10454395;28;20140;-63
2021/08/08 10:14:24;;;;;;;4.85;1.65;;;;;;;23.35;36.62;99401.25;10483070;28;20162;-63
2021/08/08 10:19:26;;;;;;;5.70;1.60;;;;;;;22.88;36.07;99411.47;10472282;28;20139;-63
2021/08/08 10:24:28;;;;;;;5.25;1.65;;;;;;;22.84;36.06;99416.31;10486694;28;20452;-63
2021/08/08 10:29:32;;;;;;;5.72;1.80;;;;;;;22.43;36.93;99418.50;10483308;28;20136;-62
2021/08/08 10:34:33;;;;;;;5.93;1.67;;;;;;;22.59;37.06;99415.72;10480463;28;20110;-59
2021/08/08 10:39:41;;;;;;;5.82;1.75;;;;;;;22.85;35.96;99422.47;10480379;28;20131;-59
2021/08/08 10:44:47;;;;;;;6.03;1.80;;;;;;;22.98;36.80;99420.84;10491887;28;20040;-59
2021/08/08 10:49:48;;;;;;;6.88;1.70;;;;;;;22.36;37.97;99432.72;10486243;28;20659;-59
2021/08/08 10:54:52;;;;;;;6.38;1.77;;;;;;;22.98;37.28;99417.34;10493762;28;20048;-59
2021/08/08 10:59:54;;;;;;;5.35;1.60;;;;;;;23.27;37.21;99418.16;10489159;28;20131;-59
2021/08/08 11:04:56;;;;;;;4.75;1.98;;;;;;;23.42;36.77;99427.03;10493015;28;20048;-59
2021/08/08 11:09:58;;;;;;;4.97;1.60;;;;;;;23.05;37.13;99427.09;10483376;28;20139;-60
2021/08/08 11:15:00;;;;;;;5.38;1.80;;;;;;;22.79;37.56;99431.19;10491237;28;20318;-60
2021/08/08 11:20:04;;;;;;;4.57;1.95;;;;;;;22.80;37.75;99431.00;10485794;28;20076;-61
2021/08/08 11:25:13;;;;;;;5.55;1.90;;;;;;;22.96;36.89;99422.88;10488834;28;20498;-59
2021/08/08 11:30:16;;;;;;;4.93;1.70;;;;;;;23.01;37.34;99427.63;10478260;28;20139;-60
2021/08/08 11:35:27;;;;;;;6.05;1.90;;;;;;;22.93;37.00;99423.22;10468142;28;20572;-60
2021/08/08 11:40:33;;;;;;;6.85;1.92;;;;;;;23.16;37.07;99417.81;10487098;28;20101;-60
2021/08/08 11:45:47;;;;;;;7.38;2.10;;;;;;;23.11;36.77;99421.03;10492278;28;20127;-61
2021/08/08 11:51:03;;;;;;;6.10;1.83;;;;;;;23.17;37.01;99422.13;10485598;28;20512;-60
2021/08/08 11:56:22;;;;;;;6.13;1.80;;;;;;;23.40;37.30;99438.88;10490257;28;20103;-60
2021/08/08 12:01:25;;;;;;;8.73;2.00;;;;;;;22.57;40.19;99476.34;10487637;28;20044;-60
2021/08/08 12:06:27;;;;;;;9.07;2.53;;;;;;;20.63;46.62;99499.34;10485331;28;20102;-60
2021/08/08 12:11:47;;;;;;;8.95;2.38;;;;;;;19.30;52.24;99492.28;10480928;28;20144;-60
2021/08/08 12:16:58;;;;;;;6.32;2.42;;;;;;;18.88;52.42;99520.47;10492258;28;20496;-60
2021/08/08 12:22:21;;;;;;;8.93;2.42;;;;;;;18.22;54.36;99566.84;10486956;28;20128;-60
2021/08/08 12:27:35;;;;;;;5.32;1.88;;;;;;;17.77;55.14;99553.56;10481667;28;20654;-60
2021/08/08 12:32:39;;;;;;;4.28;1.77;;;;;;;17.41;55.08;99544.63;10485194;28;20076;-60
2021/08/08 12:37:42;;;;;;;4.57;1.70;;;;;;;17.34;56.00;99534.78;10485288;28;20127;-59
2021/08/08 12:42:44;;;;;;;5.75;1.90;;;;;;;17.37;56.22;99542.41;10489194;28;20083;-60
2021/08/08 12:47:59;;;;;;;5.35;1.80;;;;;;;17.47;57.10;99535.28;10469748;28;20091;-60
2021/08/08 12:53:02;;;;;;;4.75;1.52;;;;;;;17.49;56.85;99531.53;10469313;28;20128;-60
2021/08/08 12:58:04;;;;;;;4.43;1.67;;;;;;;17.57;56.28;99529.00;10485696;28;20132;-60
2021/08/08 13:03:06;;;;;;;4.10;1.60;;;;;;;17.44;56.87;99541.72;10480829;28;20598;-60
2021/08/08 13:08:08;;;;;;;2.75;1.45;;;;;;;17.41;57.28;99547.28;10480411;28;20135;-59
2021/08/08 13:13:10;;;;;;;3.63;1.60;;;;;;;17.63;57.26;99549.56;10488717;28;20060;-60
2021/08/08 13:18:11;;;;;;;3.97;1.60;;;;;;;17.73;57.47;99544.22;10486229;28;20131;-60
2021/08/08 13:23:15;;;;;;;6.53;1.80;;;;;;;17.97;57.19;99543.69;10487998;28;20128;-60
2021/08/08 13:28:16;;;;;;;4.82;1.80;;;;;;;17.96;57.45;99545.50;10483681;28;20076;-60
2021/08/08 13:33:18;;;;;;;3.28;1.60;;;;;;;17.99;57.96;99550.53;10484173;28;20148;-60
2021/08/08 13:38:20;;;;;;;4.55;1.90;;;;;;;18.27;57.25;99564.59;10481716;28;20078;-60
2021/08/08 13:43:22;;;;;;;2.58;1.33;;;;;;;18.81;53.57;99568.94;10482898;28;20076;-59
2021/08/08 13:48:24;;;;;;;3.83;1.50;;;;;;;19.38;54.39;99571.88;10484335;28;20113;-60
2021/08/08 13:53:28;;;;;;;4.85;1.55;;;;;;;19.20;53.90;99581.69;10453108;28;20049;-60
2021/08/08 13:58:31;;;;;;;5.85;1.95;;;;;;;19.55;52.04;99579.91;10430553;28;20072;-60
2021/08/08 14:03:32;;;;;;;4.22;1.58;;;;;;;19.69;53.01;99582.81;10440126;28;20112;-60
2021/08/08 14:08:34;;;;;;;4.45;1.60;;;;;;;19.72;53.75;99569.25;10426250;28;20406;-59
2021/08/08 14:13:36;;;;;;;4.13;1.73;;;;;;;19.92;52.97;99561.91;10434701;28;20161;-59
2021/08/08 14:18:38;;;;;;;4.30;1.63;;;;;;;20.10;53.50;99571.44;10412331;28;20137;-59
2021/08/08 14:23:40;;;;;;;4.65;1.85;;;;;;;19.40;53.74;99577.84;10444995;28;20560;-59
2021/08/08 14:28:42;;;;;;;5.18;1.70;;;;;;;18.90;54.92;99568.00;10445931;28;20049;-60
2021/08/08 14:33:44;;;;;;;5.65;1.92;;;;;;;19.51;55.10;99562.66;10444980;28;20285;-59
2021/08/08 14:38:46;;;;;;;4.40;1.90;;;;;;;19.78;54.24;99560.66;10445127;28;20045;-59
2021/08/08 14:43:48;;;;;;;6.10;1.90;;;;;;;19.89;54.56;99573.66;10442680;28;20675;-60
2021/08/08 14:48:49;;;;;;;5.35;2.13;;;;;;;19.67;55.28;99582.16;10422504;28;20145;-59
2021/08/08 14:53:54;;;;;;;7.45;2.15;;;;;;;19.57;54.49;99594.69;10444462;28;20656;-59
2021/08/08 14:58:56;;;;;;;5.20;1.80;;;;;;;19.61;54.47;99585.44;10445054;28;20435;-60
2021/08/08 15:03:58;;;;;;;4.60;2.00;;;;;;;19.46;54.66;99582.53;10442674;28;20068;-60
2021/08/08 15:09:00;;;;;;;5.05;1.90;;;;;;;19.32;54.66;99582.25;10444224;28;20057;-59
2021/08/08 15:14:01;;;;;;;6.60;1.90;;;;;;;19.54;53.30;99589.72;10437186;28;20452;-59
2021/08/08 15:19:03;;;;;;;3.45;1.58;;;;;;;19.60;52.97;99598.88;10444490;28;20765;-60
2021/08/08 15:24:05;;;;;;;3.58;1.50;;;;;;;19.60;51.68;99599.72;10442551;28;20529;-60
2021/08/08 15:29:07;;;;;;;4.75;1.65;;;;;;;19.76;52.54;99598.97;10421405;28;20088;-59
2021/08/08 15:34:08;;;;;;;6.57;1.63;;;;;;;19.88;52.26;99597.72;10442879;28;20083;-60
2021/08/08 15:39:11;;;;;;;5.10;1.90;;;;;;;20.18;49.76;99602.50;10444983;28;20041;-60
2021/08/08 15:44:12;;;;;;;4.10;1.60;;;;;;;20.66;48.62;99586.69;10424943;28;20041;-59
2021/08/08 15:49:14;;;;;;;5.40;1.70;;;;;;;20.81;47.69;99568.28;10434052;28;20049;-60
2021/08/08 15:54:16;;;;;;;4.38;1.48;;;;;;;21.14;46.87;99563.78;10448934;28;20049;-60
2021/08/08 15:59:18;;;;;;;4.07;1.50;;;;;;;21.16;46.05;99564.44;10442972;28;20082;-60
2021/08/08 16:04:19;;;;;;;4.63;1.40;;;;;;;21.08;45.24;99560.81;10447747;28;20124;-60
2021/08/08 16:09:21;;;;;;;5.03;1.50;;;;;;;21.01;45.37;99566.94;10446159;28;20128;-60
2021/08/08 16:14:23;;;;;;;3.75;1.40;;;;;;;21.24;45.84;99567.94;10446390;28;20049;-61
2021/08/08 16:19:25;;;;;;;3.25;1.50;;;;;;;21.13;45.12;99564.81;10446664;28;20052;-60
2021/08/08 16:24:27;;;;;;;4.22;1.38;;;;;;;20.92;44.93;99576.78;10447629;28;20128;-61
2021/08/08 16:29:29;;;;;;;5.80;1.50;;;;;;;20.74;46.14;99586.69;10445732;28;20088;-61
2021/08/08 16:34:30;;;;;;;6.88;1.60;;;;;;;20.56;46.21;99591.28;10442022;28;20135;-60
2021/08/08 16:39:36;;;;;;;4.38;1.70;;;;;;;20.65;46.45;99605.47;10437931;28;20075;-60
2021/08/08 16:44:37;;;;;;;2.92;1.35;;;;;;;20.47;45.06;99602.91;10424529;28;20053;-61
2021/08/08 16:49:39;;;;;;;4.78;1.55;;;;;;;20.49;44.99;99608.06;10420253;28;20092;-61
2021/08/08 16:54:41;;;;;;;3.38;1.50;;;;;;;20.52;46.53;99618.38;10441900;28;20123;-60
2021/08/08 16:59:43;;;;;;;3.95;1.60;;;;;;;20.45;45.65;99617.34;10444801;28;20098;-62
2021/08/08 17:04:49;;;;;;;4.85;1.52;;;;;;;20.23;46.63;99624.09;10436365;28;20442;-61
2021/08/08 17:09:50;;;;;;;5.93;1.65;;;;;;;20.34;46.98;99620.31;10445704;28;20107;-59
2021/08/08 17:14:57;;;;;;;5.70;1.60;;;;;;;19.88;47.29;99637.53;10435260;28;20405;-59
2021/08/08 17:19:59;;;;;;;4.40;1.60;;;;;;;20.04;48.39;99632.31;10439434;28;20072;-60
2021/08/08 17:25:04;;;;;;;4.30;1.60;;;;;;;20.09;46.02;99640.63;10443401;28;20038;-60
2021/08/08 17:30:08;;;;;;;4.80;2.00;;;;;;;20.06;45.62;99638.28;10409129;28;20506;-60
2021/08/08 17:35:12;;;;;;;4.57;1.60;;;;;;;19.96;45.38;99637.56;10438747;28;20136;-60
2021/08/08 17:40:14;;;;;;;6.10;1.80;;;;;;;19.94;45.28;99645.69;10405540;28;20710;-60
2021/08/08 17:45:16;;;;;;;6.57;1.70;;;;;;;19.81;45.22;99647.06;10413526;28;20080;-60
2021/08/08 17:50:18;;;;;;;3.75;1.58;;;;;;;19.65;45.57;99660.22;10432525;28;20135;-60
2021/08/08 17:55:20;;;;;;;4.88;1.50;;;;;;;19.55;45.24;99656.84;10423084;28;20188;-59
2021/08/08 18:00:21;;;;;;;6.25;1.60;;;;;;;19.44;46.12;99657.94;10435234;28;20565;-60
2021/08/08 18:05:23;;;;;;;3.28;1.73;;;;;;;19.33;45.94;99661.69;10433882;28;20957;-59
2021/08/08 18:10:26;;;;;;;4.57;1.70;;;;;;;19.27;46.84;99659.66;10439257;28;20057;-59
2021/08/08 18:15:28;;;;;;;3.10;1.40;;;;;;;19.28;47.29;99663.94;10443280;28;20081;-60
2021/08/08 18:20:29;;;;;;;5.28;1.50;;;;;;;19.04;48.60;99677.00;10437016;28;20045;-59
2021/08/08 18:25:31;;;;;;;4.35;1.50;;;;;;;18.79;48.16;99676.88;10431574;28;20458;-59
2021/08/08 18:30:33;;;;;;;5.47;1.73;;;;;;;18.48;48.80;99679.81;10442127;28;20132;-59
2021/08/08 18:35:35;;;;;;;4.85;1.60;;;;;;;18.19;51.98;99689.75;10445831;28;20136;-58
2021/08/08 18:40:37;;;;;;;7.10;1.70;;;;;;;17.95;52.16;99697.31;10430949;28;20080;-59
2021/08/08 18:45:41;;;;;;;6.38;1.60;;;;;;;17.73;51.68;99701.13;10444985;28;20447;-59
2021/08/08 18:50:42;;;;;;;4.72;1.30;;;;;;;17.54;52.19;99706.47;10435156;28;20048;-58
2021/08/08 18:55:44;;;;;;;3.70;1.60;;;;;;;17.39;53.43;99710.50;10475690;28;20049;-59
2021/08/08 19:00:46;;;;;;;8.15;2.45;;;;;;;17.19;54.34;99708.78;10445350;28;20079;-59
2021/08/08 19:05:48;;;;;;;8.65;1.73;;;;;;;17.05;54.87;99722.41;10432432;28;20118;-59
2021/08/08 19:10:50;;;;;;;7.30;1.67;;;;;;;16.87;55.49;99724.88;10442078;28;20045;-60
2021/08/08 19:15:52;;;;;;;4.32;1.80;;;;;;;16.70;55.87;99736.13;10432732;28;20103;-59
2021/08/08 19:20:54;;;;;;;6.28;1.80;;;;;;;16.59;56.28;99741.50;10452264;28;20140;-60
2021/08/08 19:25:56;;;;;;;5.07;1.70;;;;;;;16.34;55.29;99749.00;10452322;28;20456;-60
2021/08/08 19:30:58;;;;;;;5.60;1.67;;;;;;;16.11;55.80;99772.09;10449334;28;20087;-59
2021/08/08 19:36:03;;;;;;;4.63;1.80;;;;;;;15.89;57.43;99777.50;10432688;28;20059;-59
2021/08/08 19:41:05;;;;;;;5.65;2.00;;;;;;;15.72;57.32;99784.19;10450987;28;20056;-61
2021/08/08 19:46:08;;;;;;;6.72;1.95;;;;;;;15.56;58.75;99789.06;10450432;28;20144;-60
2021/08/08 19:51:11;;;;;;;8.45;3.15;;;;;;;15.50;59.68;99792.19;10447706;28;20045;-60
2021/08/08 19:56:14;;;;;;;8.07;2.92;;;;;;;15.32;60.20;99791.03;10460253;28;20092;-61
2021/08/08 20:01:17;;;;;;;10.40;2.60;;;;;;;15.20;61.07;99802.56;10443897;28;20049;-60
2021/08/08 20:06:19;;;;;;;8.90;2.20;;;;;;;15.11;61.14;99809.41;10447365;28;20049;-60
2021/08/08 20:11:22;;;;;;;6.18;2.25;;;;;;;14.89;61.36;99813.88;10450058;28;20409;-60
2021/08/08 20:16:23;;;;;;;10.63;2.40;;;;;;;14.79;62.06;99823.47;10447228;28;20102;-61
2021/08/08 20:21:25;;;;;;;9.02;2.30;;;;;;;14.79;62.16;99823.47;10448785;28;20053;-61
2021/08/08 20:26:27;;;;;;;6.85;2.53;;;;;;;14.64;61.90;99836.03;10448833;28;20053;-61
2021/08/08 20:31:31;;;;;;;13.13;6.63;;;;;;;14.56;62.58;99847.16;10444930;28;20053;-61
2021/08/08 20:36:33;;;;;;;9.68;5.63;;;;;;;14.42;63.22;99843.88;10419187;28;20647;-61
2021/08/08 20:41:35;;;;;;;8.07;3.83;;;;;;;14.43;63.28;99849.00;10448303;28;20040;-60
2021/08/08 20:46:37;;;;;;;7.28;3.13;;;;;;;14.41;63.15;99852.75;10446109;28;20052;-60
2021/08/08 20:51:39;;;;;;;15.90;3.60;;;;;;;14.11;63.28;99863.78;10446789;28;20085;-60
2021/08/08 20:56:41;;;;;;;9.70;3.20;;;;;;;14.07;63.74;99875.47;10446394;28;20128;-60
2021/08/08 21:01:43;;;;;;;10.07;3.78;;;;;;;14.04;64.08;99878.38;10425248;28;20044;-61
2021/08/08 21:06:45;;;;;;;13.60;5.00;;;;;;;14.00;63.94;99884.81;10447001;28;20091;-61
2021/08/08 21:11:47;;;;;;;8.60;4.60;;;;;;;13.94;64.13;99884.41;10446523;28;20515;-61
2021/08/08 21:16:48;;;;;;;10.35;3.50;;;;;;;13.89;64.03;99892.63;10414220;28;20073;-61
2021/08/08 21:21:50;;;;;;;9.07;2.72;;;;;;;13.87;64.18;99893.69;10446882;28;20131;-61
2021/08/08 21:26:52;;;;;;;8.07;2.45;;;;;;;13.82;64.00;99895.84;10447066;28;20076;-61
2021/08/08 21:31:54;;;;;;;6.05;2.50;;;;;;;13.71;64.15;99905.34;10445471;28;20116;-61
2021/08/08 21:36:55;;;;;;;4.88;2.70;;;;;;;13.48;63.95;99898.28;10446708;28;20077;-60
2021/08/08 21:41:57;;;;;;;9.40;2.60;;;;;;;13.35;64.67;99907.94;10446359;28;20515;-60
2021/08/08 21:46:59;;;;;;;7.53;2.60;;;;;;;13.14;64.89;99908.66;10439834;28;20203;-60
2021/08/08 21:52:01;;;;;;;12.82;3.08;;;;;;;13.19;65.39;99911.81;10421343;28;20045;-60
2021/08/08 21:57:03;;;;;;;6.85;2.70;;;;;;;13.26;65.13;99906.00;10444789;28;20045;-61
2021/08/08 22:02:05;;;;;;;8.05;2.80;;;;;;;13.30;65.04;99904.81;10444549;28;20055;-60
2021/08/08 22:07:07;;;;;;;7.78;2.50;;;;;;;13.27;64.73;99904.22;10442711;28;20045;-60
2021/08/08 22:12:09;;;;;;;11.48;3.00;;;;;;;13.24;64.84;99905.25;10412141;28;20080;-60
2021/08/08 22:17:10;;;;;;;15.30;3.40;;;;;;;13.08;64.56;99903.81;10445534;28;20087;-61
2021/08/08 22:22:12;;;;;;;11.23;3.17;;;;;;;12.91;65.18;99905.84;10437328;28;20132;-60
2021/08/08 22:27:14;;;;;;;10.43;2.47;;;;;;;12.82;65.43;99909.09;10443059;28;20045;-61
2021/08/08 22:32:16;;;;;;;8.13;2.67;;;;;;;12.68;65.98;99911.03;10435051;28;20056;-60
2021/08/08 22:37:17;;;;;;;10.63;2.35;;;;;;;12.79;65.51;99917.19;10413269;28;20353;-60
2021/08/08 22:42:19;;;;;;;8.10;2.35;;;;;;;12.78;65.73;99915.50;10451364;28;20084;-60
2021/08/08 22:47:21;;;;;;;7.53;2.30;;;;;;;12.73;65.72;99919.41;10449986;28;20111;-60
2021/08/08 22:52:22;;;;;;;7.70;2.38;;;;;;;12.71;65.64;99927.38;10451563;28;20140;-60
2021/08/08 22:57:24;;;;;;;9.25;2.50;;;;;;;12.72;65.27;99923.81;10449423;28;20049;-60
2021/08/08 23:02:26;;;;;;;10.05;2.92;;;;;;;12.39;65.38;99925.25;10450589;28;20049;-60
2021/08/08 23:07:28;;;;;;;4.15;2.30;;;;;;;12.36;65.73;99923.69;10449599;28;20140;-60
2021/08/08 23:12:30;;;;;;;9.43;2.53;;;;;;;12.45;65.74;99920.44;10420244;28;20076;-60
2021/08/08 23:17:31;;;;;;;9.40;2.30;;;;;;;12.45;65.69;99923.06;10449543;28;20135;-60
2021/08/08 23:22:33;;;;;;;4.63;1.98;;;;;;;12.49;65.56;99927.16;10427028;28;20100;-60
2021/08/08 23:27:35;;;;;;;7.38;2.42;;;;;;;12.49;65.61;99927.16;10433158;28;20485;-60